Time;durP1;ratioP1;P1;durP2;ratioP2;P2;SDS_P1;SDS_P2;PMS_P1;PMS_P2;Temp;Humidity;BMP_temperature;BMP_pressure;BME280_temperature;BME280_humidity;BME280_pressure;Samples;Min_cycle;Max_cycle;Signal;HPM_P1;HPM_P2
2022/10/25 00:01:30;;;;;;;3.08;1.20;;;10.20;99.90;;;;;;5085165;28;20028;-84
2022/10/25 00:03:56;;;;;;;4.07;1.30;;;10.20;99.90;;;;;;5067772;28;20467;-85
2022/10/25 00:06:22;;;;;;;12.73;1.10;;;10.10;99.90;;;;;;5076966;28;20035;-84
2022/10/25 00:08:48;;;;;;;3.25;1.30;;;10.20;99.90;;;;;;5086001;28;20043;-85
2022/10/25 00:11:21;;;;;;;2.03;0.95;;;10.10;99.90;;;;;;5055921;28;20039;-85
2022/10/25 00:13:51;;;;;;;4.90;0.93;;;10.10;99.90;;;;;;5086704;28;20036;-85
2022/10/25 00:16:48;;;;;;;4.10;0.90;;;10.10;99.90;;;;;;5057460;28;20099;-85
2022/10/25 00:19:13;;;;;;;2.33;1.00;;;9.90;99.90;;;;;;5058453;28;20059;-84
2022/10/25 00:21:40;;;;;;;9.25;1.50;;;9.90;99.90;;;;;;5091488;28;20063;-84
2022/10/25 00:24:06;;;;;;;2.58;1.23;;;9.80;99.90;;;;;;5067023;28;20778;-85
2022/10/25 00:26:33;;;;;;;2.50;1.23;;;9.80;99.90;;;;;;5060887;28;20079;-84
2022/10/25 00:28:59;;;;;;;3.03;1.20;;;9.70;99.90;;;;;;5061930;28;20032;-85
2022/10/25 00:31:25;;;;;;;6.35;1.38;;;9.70;99.90;;;;;;5065594;28;20078;-84
2022/10/25 00:33:51;;;;;;;4.10;1.50;;;9.70;99.90;;;;;;5077651;28;20044;-84
2022/10/25 00:36:22;;;;;;;4.25;1.30;;;9.70;99.90;;;;;;5059958;28;20472;-85
2022/10/25 00:38:49;;;;;;;7.07;1.63;;;9.70;99.90;;;;;;5077860;28;20552;-84
2022/10/25 00:41:17;;;;;;;4.85;1.55;;;9.70;99.90;;;;;;5060693;28;20020;-85
2022/10/25 00:43:48;;;;;;;8.43;1.45;;;9.80;99.90;;;;;;5061183;28;20044;-85
2022/10/25 00:46:17;;;;;;;8.98;1.73;;;9.90;99.90;;;;;;5078058;28;20498;-84
2022/10/25 00:48:52;;;;;;;7.03;1.67;;;9.90;99.90;;;;;;5063666;28;20037;-84
2022/10/25 00:51:19;;;;;;;8.07;1.55;;;10.00;99.90;;;;;;5078982;28;20116;-84
2022/10/25 00:53:45;;;;;;;2.90;1.77;;;9.90;99.90;;;;;;5072299;28;20075;-85
2022/10/25 00:56:21;;;;;;;4.07;1.10;;;9.90;99.90;;;;;;5062543;28;20024;-85
2022/10/25 00:58:51;;;;;;;5.32;1.45;;;9.90;99.90;;;;;;5082167;28;20032;-84
2022/10/25 01:01:17;;;;;;;5.80;1.60;;;9.90;99.90;;;;;;5080849;28;20039;-84
2022/10/25 01:03:47;;;;;;;4.63;1.38;;;10.00;99.90;;;;;;5059279;28;20031;-85
2022/10/25 01:06:22;;;;;;;8.15;1.33;;;10.00;99.90;;;;;;5076801;28;20731;-85
2022/10/25 01:08:50;;;;;;;5.93;1.23;;;10.10;99.90;;;;;;5059081;28;20780;-85
2022/10/25 01:11:17;;;;;;;8.38;2.00;;;10.20;99.90;;;;;;5079818;28;20364;-85
2022/10/25 01:13:43;;;;;;;11.07;1.23;;;10.30;99.90;;;;;;5079878;28;20024;-85
2022/10/25 01:19:43;;;;;;;4.57;1.17;;;10.40;99.90;;;;;;5071278;28;20079;-84
2022/10/25 01:22:18;;;;;;;7.05;1.65;;;10.40;99.90;;;;;;5054099;28;20027;-85
2022/10/25 01:25:07;;;;;;;3.45;1.30;;;10.40;99.90;;;;;;5059024;28;20060;-85
2022/10/25 01:27:58;;;;;;;9.02;1.63;;;10.40;99.90;;;;;;5057579;28;20620;-85
2022/10/25 01:30:27;;;;;;;8.63;1.88;;;10.40;99.90;;;;;;5063140;28;20574;-84
2022/10/25 01:33:19;;;;;;;4.43;1.50;;;10.40;99.90;;;;;;5077541;28;20024;-85
2022/10/25 01:36:02;;;;;;;4.05;1.40;;;10.50;99.90;;;;;;5078462;28;20024;-84
2022/10/25 01:38:48;;;;;;;11.82;1.90;;;10.50;99.90;;;;;;5050420;28;20496;-84
2022/10/25 01:41:38;;;;;;;8.20;1.77;;;10.60;99.90;;;;;;5072239;28;20032;-85
2022/10/25 01:44:27;;;;;;;5.38;1.55;;;10.70;99.90;;;;;;5064036;28;20031;-85
2022/10/25 01:47:03;;;;;;;6.68;1.77;;;10.70;99.90;;;;;;5061968;28;20487;-85
2022/10/25 01:50:16;;;;;;;6.53;1.70;;;10.70;99.90;;;;;;5060464;28;20032;-85
2022/10/25 01:52:42;;;;;;;15.52;2.00;;;10.70;99.90;;;;;;5056265;28;20043;-84
2022/10/25 01:55:12;;;;;;;3.13;1.65;;;10.80;99.90;;;;;;5059756;28;20528;-85
2022/10/25 01:57:57;;;;;;;3.00;1.70;;;10.80;99.90;;;;;;5077688;28;20086;-84
2022/10/25 02:00:24;;;;;;;7.50;2.33;;;10.90;99.90;;;;;;5065013;28;20066;-85
2022/10/25 02:02:56;;;;;;;7.55;1.70;;;10.90;99.90;;;;;;5075844;28;20054;-85
2022/10/25 02:05:36;;;;;;;4.03;1.60;;;10.90;99.90;;;;;;5057514;28;20471;-85
2022/10/25 02:08:25;;;;;;;3.97;2.23;;;10.90;99.90;;;;;;5055247;28;20495;-85
2022/10/25 02:11:10;;;;;;;5.93;2.00;;;10.90;99.90;;;;;;5057215;28;20029;-84
2022/10/25 02:13:51;;;;;;;9.88;4.05;;;10.90;99.90;;;;;;5079154;28;20036;-84
2022/10/25 02:16:23;;;;;;;4.05;1.73;;;10.90;99.90;;;;;;5080189;28;20031;-84
2022/10/25 02:18:53;;;;;;;11.98;2.22;;;10.80;99.90;;;;;;5061155;28;20031;-85
2022/10/25 02:25:08;;;;;;;7.10;1.88;;;10.80;99.90;;;;;;5071153;28;20086;-84
2022/10/25 02:27:37;;;;;;;5.22;1.73;;;10.90;99.90;;;;;;5073990;28;20030;-85
2022/10/25 02:30:04;;;;;;;8.43;1.67;;;10.90;99.90;;;;;;5062793;28;20020;-85
2022/10/25 02:32:29;;;;;;;11.40;2.10;;;10.80;99.90;;;;;;5060249;28;20028;-85
2022/10/25 02:34:56;;;;;;;9.45;1.95;;;10.80;99.90;;;;;;5063559;28;20119;-85
2022/10/25 02:37:21;;;;;;;8.57;1.80;;;10.80;99.90;;;;;;5060841;28;20028;-84
2022/10/25 02:39:48;;;;;;;8.00;1.83;;;10.80;99.90;;;;;;5071228;28;20079;-84
2022/10/25 02:42:13;;;;;;;7.78;2.00;;;10.70;99.90;;;;;;5061628;28;20039;-85
2022/10/25 02:44:39;;;;;;;5.60;1.80;;;10.70;99.90;;;;;;5070533;28;20028;-85
2022/10/25 02:47:05;;;;;;;9.88;2.65;;;10.60;99.90;;;;;;5062582;28;20059;-85
2022/10/25 02:49:30;;;;;;;6.57;2.00;;;10.70;99.90;;;;;;5060259;28;20379;-85
2022/10/25 02:51:56;;;;;;;6.80;2.17;;;10.70;99.90;;;;;;5083924;28;20513;-85
2022/10/25 02:54:22;;;;;;;17.35;2.47;;;10.80;99.90;;;;;;5064731;28;20021;-85
2022/10/25 02:56:51;;;;;;;5.10;1.75;;;10.90;99.90;;;;;;5058510;28;20021;-85
2022/10/25 02:59:17;;;;;;;7.85;2.17;;;11.00;99.90;;;;;;5083057;28;20391;-85
2022/10/25 03:01:43;;;;;;;8.20;1.90;;;11.10;99.90;;;;;;5065257;28;20115;-85
2022/10/25 03:04:08;;;;;;;10.02;2.33;;;11.10;99.90;;;;;;5056293;28;20125;-85
2022/10/25 03:06:34;;;;;;;6.88;2.50;;;11.10;99.90;;;;;;5083977;28;20055;-85
2022/10/25 03:08:59;;;;;;;11.73;2.53;;;11.10;99.90;;;;;;5075886;28;20713;-85
2022/10/25 03:11:25;;;;;;;7.45;1.95;;;11.10;99.90;;;;;;5084064;28;20024;-85
2022/10/25 03:13:51;;;;;;;8.38;1.88;;;11.10;99.90;;;;;;5062500;28;20035;-85
2022/10/25 03:16:17;;;;;;;7.90;3.05;;;11.10;99.90;;;;;;5084761;28;20016;-85
2022/10/25 03:22:30;;;;;;;9.32;2.38;;;11.10;99.90;;;;;;5063303;28;20452;-85
2022/10/25 03:24:56;;;;;;;8.73;1.65;;;11.10;99.90;;;;;;5073442;28;20084;-85
2022/10/25 03:27:22;;;;;;;8.45;2.30;;;11.10;99.90;;;;;;5062781;28;20131;-85
2022/10/25 03:29:47;;;;;;;7.78;2.13;;;11.20;99.90;;;;;;5063555;28;20130;-85
2022/10/25 03:32:13;;;;;;;5.65;2.05;;;11.10;99.90;;;;;;5080078;28;20028;-85
2022/10/25 03:34:38;;;;;;;7.40;2.03;;;11.20;99.90;;;;;;5066163;28;20033;-85
2022/10/25 03:37:04;;;;;;;3.17;1.88;;;11.20;99.90;;;;;;5064053;28;20027;-85
2022/10/25 03:39:30;;;;;;;8.48;2.42;;;11.20;99.90;;;;;;5075139;28;20188;-85
2022/10/25 03:41:55;;;;;;;7.30;2.53;;;11.20;99.90;;;;;;5081538;28;20380;-85
2022/10/25 03:44:21;;;;;;;9.18;2.35;;;11.20;99.90;;;;;;5062294;28;20026;-85
2022/10/25 03:46:47;;;;;;;6.93;2.30;;;11.20;99.90;;;;;;5063463;28;20380;-85
2022/10/25 03:49:12;;;;;;;7.70;2.67;;;11.20;99.90;;;;;;5063091;28;20020;-85
2022/10/25 03:51:38;;;;;;;9.93;2.85;;;11.20;99.90;;;;;;5066231;28;20033;-84
2022/10/25 03:54:48;;;;;;;8.02;2.47;;;11.20;99.90;;;;;;5063791;28;20119;-85
2022/10/25 03:57:13;;;;;;;14.23;2.90;;;11.20;99.90;;;;;;5058323;28;20150;-85
2022/10/25 03:59:39;;;;;;;10.70;2.35;;;11.10;99.90;;;;;;5089905;28;20123;-84
2022/10/25 04:02:05;;;;;;;5.93;2.40;;;11.10;99.90;;;;;;5059986;28;20586;-86
2022/10/25 04:04:30;;;;;;;6.25;2.25;;;11.00;99.90;;;;;;5071145;28;20044;-85
2022/10/25 04:06:56;;;;;;;6.70;2.47;;;11.00;99.90;;;;;;5103341;28;20459;-85
2022/10/25 04:09:22;;;;;;;12.60;2.35;;;11.00;99.90;;;;;;5061599;28;20032;-84
2022/10/25 04:11:47;;;;;;;10.02;2.35;;;11.00;99.90;;;;;;5088401;28;20107;-85
2022/10/25 04:14:13;;;;;;;13.77;2.53;;;11.10;99.90;;;;;;5057819;28;20033;-85
2022/10/25 04:16:39;;;;;;;16.10;3.10;;;11.10;99.90;;;;;;5087195;28;20111;-85
2022/10/25 04:19:04;;;;;;;12.40;4.22;;;11.10;99.90;;;;;;5077535;28;20078;-84
2022/10/25 04:21:30;;;;;;;8.10;2.65;;;11.20;99.90;;;;;;5070729;28;20031;-85
2022/10/25 04:23:56;;;;;;;14.18;3.00;;;11.20;99.90;;;;;;5086203;28;20031;-85
2022/10/25 04:30:09;;;;;;;15.40;3.15;;;11.20;99.90;;;;;;5064785;28;20514;-85
2022/10/25 04:32:35;;;;;;;9.93;3.08;;;11.20;99.90;;;;;;5070603;28;20045;-85
2022/10/25 04:35:00;;;;;;;8.93;2.70;;;11.20;99.90;;;;;;5065441;28;20020;-85
2022/10/25 04:37:26;;;;;;;13.85;3.00;;;11.30;99.90;;;;;;5072893;28;20457;-86
2022/10/25 04:39:52;;;;;;;18.83;4.00;;;11.30;99.90;;;;;;5056353;28;20035;-85
2022/10/25 04:42:18;;;;;;;11.63;4.13;;;11.20;99.90;;;;;;5080532;28;20024;-85
2022/10/25 04:44:43;;;;;;;20.58;4.80;;;11.20;99.90;;;;;;5075774;28;20059;-85
2022/10/25 04:47:09;;;;;;;16.05;4.95;;;11.20;99.90;;;;;;5081390;28;20758;-85
2022/10/25 04:49:35;;;;;;;17.65;4.28;;;11.20;99.90;;;;;;5061357;28;20040;-85
2022/10/25 04:52:01;;;;;;;21.75;4.22;;;11.20;99.90;;;;;;5081880;28;20463;-85
2022/10/25 04:54:51;;;;;;;15.98;3.60;;;11.30;99.90;;;;;;5080461;28;20032;-86
2022/10/25 04:57:17;;;;;;;14.05;3.90;;;11.20;99.90;;;;;;5074472;28;20081;-86
2022/10/25 04:59:53;;;;;;;12.60;3.33;;;11.20;99.90;;;;;;5072280;28;20039;-85
2022/10/25 05:02:19;;;;;;;10.55;4.00;;;11.10;99.90;;;;;;5057822;28;20060;-85
2022/10/25 05:04:44;;;;;;;10.98;3.40;;;11.10;99.90;;;;;;5073561;28;20028;-86
2022/10/25 05:10:34;;;;;;;10.85;3.25;;;11.10;99.90;;;;;;5077175;28;20036;-86
2022/10/25 05:13:00;;;;;;;12.00;2.92;;;11.10;99.90;;;;;;5070744;28;20035;-85
2022/10/25 05:15:41;;;;;;;10.50;3.05;;;11.00;99.90;;;;;;5061505;28;20047;-85
2022/10/25 05:18:07;;;;;;;10.23;2.90;;;11.10;99.90;;;;;;5064983;28;20049;-85
2022/10/25 05:24:21;;;;;;;13.75;3.15;;;11.10;99.90;;;;;;5054009;28;20818;-85
2022/10/25 05:26:47;;;;;;;12.75;2.72;;;11.10;99.90;;;;;;5075325;28;20115;-85
2022/10/25 05:29:12;;;;;;;11.77;3.15;;;11.10;99.90;;;;;;5059406;28;20032;-84
2022/10/25 05:31:40;;;;;;;12.75;3.05;;;11.10;99.90;;;;;;5074054;28;20468;-85
2022/10/25 05:34:08;;;;;;;11.52;3.20;;;11.20;99.90;;;;;;5075758;28;20501;-84
2022/10/25 05:36:33;;;;;;;17.17;3.08;;;11.30;99.90;;;;;;5065554;28;20058;-85
2022/10/25 05:39:00;;;;;;;10.73;2.90;;;11.30;99.90;;;;;;5074884;28;20047;-85
2022/10/25 05:41:26;;;;;;;10.88;3.08;;;11.30;99.90;;;;;;5063377;28;20044;-84
2022/10/25 05:43:52;;;;;;;10.68;3.22;;;11.30;99.90;;;;;;5052212;28;20047;-84
2022/10/25 05:46:20;;;;;;;20.63;3.50;;;11.30;99.90;;;;;;5057141;28;20024;-84
2022/10/25 05:48:47;;;;;;;13.07;4.40;;;11.30;99.90;;;;;;5078909;28;20029;-84
2022/10/25 05:51:16;;;;;;;12.30;4.05;;;11.20;99.90;;;;;;5063509;28;20697;-84
2022/10/25 05:53:45;;;;;;;14.40;3.88;;;11.20;99.90;;;;;;5071533;28;20119;-85
2022/10/25 05:56:12;;;;;;;14.23;3.95;;;11.10;99.90;;;;;;5060176;28;20030;-85
2022/10/25 05:58:38;;;;;;;19.17;3.90;;;11.00;99.90;;;;;;5061648;28;20131;-85
2022/10/25 06:01:04;;;;;;;12.05;3.58;;;11.00;99.90;;;;;;5070281;28;20032;-85
2022/10/25 06:03:30;;;;;;;15.93;4.43;;;11.00;99.90;;;;;;5075711;28;20028;-88
2022/10/25 06:06:04;;;;;;;11.25;4.18;;;11.00;99.90;;;;;;5045870;28;20178;-88
2022/10/25 06:08:30;;;;;;;17.08;3.72;;;11.00;99.90;;;;;;5042746;28;20036;-88
2022/10/25 06:11:04;;;;;;;12.80;3.42;;;11.10;99.90;;;;;;5048774;28;20069;-87
2022/10/25 06:13:30;;;;;;;8.02;3.58;;;11.10;99.90;;;;;;5064288;28;20032;-87
2022/10/25 06:15:56;;;;;;;16.27;4.40;;;11.00;99.90;;;;;;5062356;28;20118;-88
2022/10/25 06:18:23;;;;;;;20.40;4.20;;;11.00;99.90;;;;;;5062071;28;20029;-88
2022/10/25 06:20:48;;;;;;;10.07;4.40;;;11.00;99.90;;;;;;5054501;28;20055;-87
2022/10/25 06:23:14;;;;;;;16.27;5.57;;;11.10;99.90;;;;;;5062736;28;20029;-87
2022/10/25 06:25:40;;;;;;;19.42;5.50;;;11.10;99.90;;;;;;5061595;28;20676;-88
2022/10/25 06:28:08;;;;;;;27.70;8.68;;;11.10;99.90;;;;;;5062319;28;20123;-87
2022/10/25 06:30:34;;;;;;;18.65;6.20;;;11.20;99.90;;;;;;5053866;28;20028;-88
2022/10/25 06:32:59;;;;;;;22.08;3.85;;;11.20;99.90;;;;;;5066079;28;20370;-88
2022/10/25 06:35:25;;;;;;;17.85;3.40;;;11.20;99.90;;;;;;5071469;28;20025;-88
2022/10/25 06:37:51;;;;;;;11.95;3.35;;;11.20;99.90;;;;;;5061287;28;20095;-88
2022/10/25 06:40:17;;;;;;;18.27;4.28;;;11.20;99.90;;;;;;5060485;28;20063;-87
2022/10/25 06:42:42;;;;;;;25.42;4.13;;;11.20;99.90;;;;;;5060495;28;20464;-88
2022/10/25 06:45:08;;;;;;;9.93;3.17;;;11.20;99.90;;;;;;5049984;28;20492;-87
2022/10/25 06:47:34;;;;;;;13.13;3.33;;;11.20;99.90;;;;;;5058732;28;20032;-88
2022/10/25 06:50:00;;;;;;;13.23;3.20;;;11.20;99.90;;;;;;5064146;28;20468;-88
2022/10/25 06:52:27;;;;;;;10.07;3.38;;;11.20;99.90;;;;;;5056563;28;20071;-88
2022/10/25 06:54:53;;;;;;;17.52;3.28;;;11.30;99.90;;;;;;5057942;28;20028;-88
2022/10/25 06:57:19;;;;;;;23.10;7.70;;;11.40;99.90;;;;;;5061224;28;20040;-88
2022/10/25 06:59:44;;;;;;;20.48;4.97;;;11.40;99.90;;;;;;5058465;28;20579;-88
2022/10/25 07:02:10;;;;;;;17.60;4.40;;;11.50;99.90;;;;;;5067699;28;20024;-88
2022/10/25 07:04:36;;;;;;;17.92;5.70;;;11.40;99.90;;;;;;5065166;28;20096;-89
2022/10/25 07:07:02;;;;;;;12.68;4.22;;;11.50;99.90;;;;;;5070696;28;20016;-89
2022/10/25 07:09:28;;;;;;;16.23;4.25;;;11.50;99.90;;;;;;5065545;28;20115;-88
2022/10/25 07:11:54;;;;;;;14.32;3.30;;;11.60;99.90;;;;;;5060786;28;20089;-88
2022/10/25 07:14:19;;;;;;;11.48;3.63;;;11.80;99.90;;;;;;5084546;28;20032;-88
2022/10/25 07:16:45;;;;;;;13.25;2.47;;;11.90;99.90;;;;;;5080309;28;20028;-88
2022/10/25 07:19:11;;;;;;;14.55;2.97;;;12.00;99.90;;;;;;5085583;28;20336;-88
2022/10/25 07:21:36;;;;;;;11.27;2.22;;;12.20;99.90;;;;;;5064177;28;20024;-88
2022/10/25 07:24:02;;;;;;;16.27;2.22;;;12.30;99.90;;;;;;5076793;28;20425;-88
2022/10/25 07:26:30;;;;;;;17.25;2.80;;;12.40;99.90;;;;;;5065754;28;20047;-89
2022/10/25 07:28:58;;;;;;;20.35;2.85;;;12.40;99.90;;;;;;5067475;28;20035;-88
2022/10/25 07:31:31;;;;;;;7.28;2.17;;;12.50;99.90;;;;;;5063132;28;20028;-88
2022/10/25 07:33:58;;;;;;;10.10;2.33;;;12.50;99.90;;;;;;5069479;28;20077;-85
2022/10/25 07:40:18;;;;;;;8.63;2.17;;;12.50;99.90;;;;;;5085739;28;20032;-88
2022/10/25 07:42:43;;;;;;;12.65;3.85;;;12.40;99.90;;;;;;5090081;28;20554;-87
2022/10/25 07:45:09;;;;;;;12.43;2.55;;;12.40;99.90;;;;;;5060993;28;20060;-87
2022/10/25 07:47:35;;;;;;;9.77;2.58;;;12.40;99.90;;;;;;5072431;28;20483;-87
2022/10/25 07:50:00;;;;;;;16.05;3.40;;;12.50;99.90;;;;;;5086264;28;20032;-89
2022/10/25 07:52:26;;;;;;;12.60;5.13;;;12.50;99.90;;;;;;5072812;28;20124;-88
2022/10/25 07:54:52;;;;;;;11.73;2.70;;;12.60;99.90;;;;;;5077702;28;20056;-88
2022/10/25 07:57:17;;;;;;;16.55;3.17;;;12.50;99.90;;;;;;5057733;28;20016;-87
2022/10/25 07:59:43;;;;;;;9.35;2.75;;;12.40;99.90;;;;;;5062654;28;20048;-87
2022/10/25 08:02:17;;;;;;;12.90;3.67;;;12.40;99.90;;;;;;5087621;28;20476;-88
2022/10/25 08:04:43;;;;;;;19.70;4.95;;;12.40;99.90;;;;;;5066190;28;20458;-87
2022/10/25 08:07:09;;;;;;;12.90;3.78;;;12.70;99.90;;;;;;5061280;28;20020;-88
2022/10/25 08:09:35;;;;;;;14.63;3.60;;;12.90;99.90;;;;;;5076486;28;20029;-87
2022/10/25 08:12:00;;;;;;;14.15;3.15;;;12.90;99.90;;;;;;5061861;28;20026;-88
2022/10/25 08:14:26;;;;;;;10.88;3.20;;;12.70;99.90;;;;;;5066885;28;20052;-87
2022/10/25 08:16:52;;;;;;;18.77;3.22;;;12.70;99.90;;;;;;5078611;28;20043;-88
2022/10/25 08:19:17;;;;;;;14.90;3.15;;;12.70;99.90;;;;;;5068618;28;20809;-87
2022/10/25 08:21:43;;;;;;;20.05;3.10;;;12.60;99.90;;;;;;5065637;28;20114;-88
2022/10/25 08:24:09;;;;;;;13.93;2.88;;;12.50;99.90;;;;;;5061941;28;20039;-88
2022/10/25 08:26:34;;;;;;;14.32;3.92;;;12.60;99.90;;;;;;5072952;28;20043;-88
2022/10/25 08:29:00;;;;;;;15.60;3.90;;;12.70;99.90;;;;;;5061295;28;20076;-88
2022/10/25 08:31:26;;;;;;;16.65;4.07;;;12.70;99.90;;;;;;5082280;28;20482;-88
2022/10/25 08:37:17;;;;;;;14.75;2.92;;;13.10;99.90;;;;;;5073099;28;20052;-87
2022/10/25 08:39:43;;;;;;;12.50;2.53;;;13.30;99.90;;;;;;5073851;28;20373;-88
2022/10/25 08:42:19;;;;;;;15.43;2.20;;;13.40;99.90;;;;;;5070138;28;20020;-88
2022/10/25 08:45:18;;;;;;;12.75;2.72;;;13.50;99.90;;;;;;5064983;28;20479;-87
2022/10/25 08:51:28;;;;;;;15.02;3.10;;;13.50;99.90;;;;;;5069688;28;20082;-88
2022/10/25 08:53:59;;;;;;;9.23;2.05;;;13.50;99.90;;;;;;5065136;28;20384;-88
2022/10/25 08:56:44;;;;;;;11.43;2.17;;;13.70;99.90;;;;;;5072889;28;20503;-88
2022/10/25 08:59:19;;;;;;;9.57;2.50;;;13.90;99.90;;;;;;5062433;28;20099;-88
2022/10/25 09:01:53;;;;;;;11.98;2.72;;;14.30;99.90;;;;;;5052033;28;20055;-87
2022/10/25 09:04:20;;;;;;;17.27;2.88;;;14.40;99.90;;;;;;5060344;28;20040;-88
2022/10/25 09:07:01;;;;;;;10.73;2.67;;;14.50;99.90;;;;;;5054963;28;20024;-87
2022/10/25 09:09:33;;;;;;;;;;;14.40;99.90;;;;;;5055049;28;20035;-88
2022/10/25 09:12:18;;;;;;;;;;;14.40;99.90;;;;;;5060089;28;19916;-88
2022/10/25 09:15:40;;;;;;;8.13;2.10;;;14.30;99.90;;;;;;5049676;28;19913;-88
2022/10/25 09:18:14;;;;;;;10.43;2.65;;;14.20;99.90;;;;;;5070020;28;20024;-88
2022/10/25 09:20:57;;;;;;;8.32;2.38;;;14.20;99.90;;;;;;5070993;28;20060;-87
2022/10/25 09:23:29;;;;;;;13.27;2.50;;;14.20;99.90;;;;;;5067519;28;20407;-88
2022/10/25 09:26:10;;;;;;;11.60;2.08;;;14.10;99.90;;;;;;5058955;28;20479;-89
2022/10/25 09:29:01;;;;;;;11.27;2.08;;;14.10;99.90;;;;;;5053135;28;20040;-88
2022/10/25 09:31:34;;;;;;;13.65;2.35;;;14.10;99.90;;;;;;5052133;28;20032;-88
2022/10/25 09:34:04;;;;;;;10.38;3.75;;;14.30;99.90;;;;;;5058079;28;20029;-88
2022/10/25 09:36:39;;;;;;;12.77;3.55;;;14.40;99.90;;;;;;5055398;28;20036;-88
2022/10/25 09:39:15;;;;;;;6.60;2.03;;;14.50;99.90;;;;;;5066294;28;20469;-88
2022/10/25 09:41:45;;;;;;;11.35;3.75;;;14.40;99.90;;;;;;5071501;28;20039;-88
2022/10/25 09:44:43;;;;;;;11.45;2.58;;;14.40;99.90;;;;;;5050366;28;20028;-88
2022/10/25 09:47:47;;;;;;;5.90;2.05;;;14.40;99.90;;;;;;5049020;28;20061;-88
2022/10/25 09:50:13;;;;;;;17.42;2.65;;;14.30;99.90;;;;;;5024800;28;20045;-88
2022/10/25 09:52:39;;;;;;;8.05;2.22;;;14.20;99.90;;;;;;5068590;28;20040;-88
2022/10/25 09:55:10;;;;;;;8.23;2.17;;;14.40;99.90;;;;;;5049956;28;20024;-88
2022/10/25 09:57:36;;;;;;;10.00;1.92;;;14.50;99.90;;;;;;5060350;28;20024;-88
2022/10/25 10:00:03;;;;;;;13.23;2.30;;;14.40;99.90;;;;;;5084464;28;20099;-88
2022/10/25 10:02:38;;;;;;;13.35;3.58;;;14.10;99.90;;;;;;5054249;28;20045;-88
2022/10/25 10:05:04;;;;;;;10.00;2.78;;;14.10;99.90;;;;;;5055155;28;20039;-89
2022/10/25 10:07:35;;;;;;;17.63;3.35;;;14.10;99.90;;;;;;5054394;28;20029;-87
2022/10/25 10:10:06;;;;;;;17.25;2.72;;;14.20;99.90;;;;;;5039577;28;20051;-88
2022/10/25 10:12:46;;;;;;;12.32;2.65;;;14.40;99.90;;;;;;5046993;28;20037;-88
2022/10/25 10:16:00;;;;;;;10.68;5.00;;;14.30;99.90;;;;;;5064612;28;20040;-88
2022/10/25 10:18:29;;;;;;;11.40;4.20;;;14.30;99.90;;;;;;5057524;28;20098;-89
2022/10/25 10:21:00;;;;;;;12.85;3.92;;;14.40;99.90;;;;;;5064787;28;20021;-88
2022/10/25 10:23:28;;;;;;;32.30;12.18;;;14.50;99.90;;;;;;5075040;28;20024;-89
2022/10/25 10:25:54;;;;;;;18.85;6.70;;;14.50;99.90;;;;;;5079194;28;20028;-88
2022/10/25 10:28:20;;;;;;;18.35;3.63;;;14.60;99.90;;;;;;5075320;28;20080;-89
2022/10/25 10:30:57;;;;;;;12.32;2.63;;;14.90;99.90;;;;;;5076857;28;20175;-88
2022/10/25 10:33:28;;;;;;;11.38;4.85;;;15.30;99.90;;;;;;5077232;28;20104;-87
2022/10/25 10:35:54;;;;;;;10.68;2.72;;;15.30;99.90;;;;;;5079453;28;20051;-87
2022/10/25 10:38:20;;;;;;;6.97;1.80;;;15.20;99.90;;;;;;5061132;28;20020;-86
2022/10/25 10:40:46;;;;;;;10.90;2.33;;;15.00;99.90;;;;;;5063395;28;20033;-86
2022/10/25 10:43:22;;;;;;;9.70;2.83;;;14.80;99.90;;;;;;5078567;28;20040;-87
2022/10/25 10:45:49;;;;;;;11.63;2.90;;;14.60;99.90;;;;;;5055469;28;20110;-87
2022/10/25 10:48:22;;;;;;;13.18;2.83;;;14.50;99.90;;;;;;5062933;28;20036;-87
2022/10/25 10:50:50;;;;;;;7.18;2.40;;;14.30;99.90;;;;;;5076110;28;20037;-87
2022/10/25 10:53:20;;;;;;;13.68;2.40;;;14.00;99.90;;;;;;5063347;28;20032;-87
2022/10/25 10:55:51;;;;;;;11.15;2.17;;;14.00;99.90;;;;;;5066822;28;20021;-87
2022/10/25 10:58:22;;;;;;;13.27;2.45;;;13.90;99.90;;;;;;5067286;28;20027;-88
2022/10/25 11:01:09;;;;;;;14.15;2.85;;;13.90;99.90;;;;;;5063644;28;20392;-87
2022/10/25 11:03:41;;;;;;;8.98;3.30;;;13.90;99.90;;;;;;5060934;28;20044;-87
2022/10/25 11:06:14;;;;;;;12.20;2.88;;;14.00;99.90;;;;;;5074581;28;20020;-88
2022/10/25 11:08:42;;;;;;;14.32;2.95;;;14.10;99.90;;;;;;5061052;28;20028;-87
2022/10/25 11:11:18;;;;;;;10.98;2.83;;;14.30;99.90;;;;;;5078902;28;20024;-87
2022/10/25 11:13:55;;;;;;;10.85;1.90;;;14.40;99.90;;;;;;5065192;28;20060;-87
2022/10/25 11:16:50;;;;;;;8.35;2.83;;;14.50;99.90;;;;;;5068938;28;20028;-87
2022/10/25 11:19:28;;;;;;;8.50;2.50;;;14.60;99.90;;;;;;5075116;28;20122;-87
2022/10/25 11:22:15;;;;;;;11.40;2.40;;;14.90;99.90;;;;;;5078826;28;20020;-87
2022/10/25 11:24:49;;;;;;;5.90;1.65;;;14.90;99.90;;;;;;5061827;28;20051;-88
2022/10/25 11:27:23;;;;;;;14.65;3.67;;;15.20;99.90;;;;;;5079647;28;20024;-88
2022/10/25 11:33:44;;;;;;;10.98;1.98;;;15.40;99.90;;;;;;5090115;28;20077;-87
2022/10/25 11:36:41;;;;;;;10.50;2.00;;;15.30;99.90;;;;;;5079080;28;20456;-87
2022/10/25 11:39:14;;;;;;;9.77;1.60;;;15.30;99.90;;;;;;5056779;28;20024;-88
2022/10/25 11:41:45;;;;;;;6.85;2.15;;;15.30;99.90;;;;;;5061585;28;20142;-88
2022/10/25 11:44:49;;;;;;;68.05;30.30;;;15.20;99.90;;;;;;5063101;28;20031;-87
2022/10/25 11:47:42;;;;;;;11.05;3.97;;;15.10;99.90;;;;;;5060204;28;20081;-88
2022/10/25 11:50:56;;;;;;;6.60;1.73;;;15.20;99.90;;;;;;5064338;28;20070;-87
2022/10/25 11:53:40;;;;;;;7.25;1.98;;;15.30;99.90;;;;;;5057659;28;20427;-88
2022/10/25 11:56:31;;;;;;;6.43;1.98;;;15.40;99.90;;;;;;5073174;28;20028;-87
2022/10/25 11:59:24;;;;;;;9.30;1.63;;;15.90;99.90;;;;;;5071323;28;20395;-87
2022/10/25 12:01:55;;;;;;;12.93;1.95;;;16.10;99.90;;;;;;5083506;28;20047;-87
2022/10/25 12:08:29;;;;;;;6.57;1.50;;;16.30;99.90;;;;;;5074706;28;20074;-87
2022/10/25 12:11:09;;;;;;;11.15;1.88;;;16.10;99.90;;;;;;5060054;28;20102;-88
2022/10/25 12:13:40;;;;;;;7.95;1.70;;;16.40;99.90;;;;;;5082150;28;20060;-87
2022/10/25 12:16:11;;;;;;;5.30;1.42;;;16.80;99.90;;;;;;5081189;28;20380;-87
2022/10/25 12:18:43;;;;;;;9.32;1.90;;;16.60;99.90;;;;;;5066138;28;20031;-87
2022/10/25 12:21:16;;;;;;;6.07;1.60;;;16.60;99.90;;;;;;5073200;28;20037;-88
2022/10/25 12:23:46;;;;;;;10.00;1.73;;;17.00;99.90;;;;;;5085358;28;20032;-89
2022/10/25 12:26:35;;;;;;;8.43;1.70;;;18.20;99.90;;;;;;5074630;28;20488;-89
2022/10/25 12:29:04;;;;;;;6.32;1.60;;;18.40;99.90;;;;;;5076433;28;20032;-89
2022/10/25 12:31:41;;;;;;;4.88;1.52;;;17.90;99.90;;;;;;5056892;28;20103;-88
2022/10/25 12:34:18;;;;;;;10.93;1.60;;;18.30;99.90;;;;;;5060191;28;20078;-88
2022/10/25 12:36:50;;;;;;;17.42;2.10;;;18.40;99.90;;;;;;5094160;28;20067;-87
2022/10/25 12:39:43;;;;;;;8.23;1.52;;;18.70;99.90;;;;;;5078082;28;20114;-88
2022/10/25 12:42:22;;;;;;;16.98;1.67;;;19.10;99.90;;;;;;5073801;28;20048;-87
2022/10/25 12:44:51;;;;;;;12.13;3.45;;;18.60;99.90;;;;;;5077848;28;20021;-88
2022/10/25 12:51:34;;;;;;;5.63;1.52;;;17.60;99.90;;;;;;5046473;28;20095;-87
2022/10/25 12:54:19;;;;;;;8.48;1.85;;;16.70;99.90;;;;;;5005436;28;20416;-88
2022/10/25 12:57:02;;;;;;;7.43;1.67;;;16.60;99.90;;;;;;5025189;28;20068;-90
2022/10/25 12:59:40;;;;;;;7.68;1.75;;;16.60;99.90;;;;;;5083695;28;20051;-88
2022/10/25 13:02:34;;;;;;;6.57;2.70;;;16.60;99.90;;;;;;5056896;28;20046;-88
2022/10/25 13:05:55;;;;;;;15.80;2.30;;;16.60;99.90;;;;;;5054131;28;20043;-88
2022/10/25 13:08:23;;;;;;;10.90;1.80;;;16.70;99.90;;;;;;5044338;28;20071;-87
2022/10/25 13:11:01;;;;;;;7.32;1.50;;;16.60;99.90;;;;;;5077478;28;20541;-88
2022/10/25 13:13:51;;;;;;;6.25;1.45;;;16.90;99.90;;;;;;5072849;28;20028;-87
2022/10/25 13:16:29;;;;;;;7.38;1.33;;;17.20;99.90;;;;;;5066164;28;20554;-87
2022/10/25 13:19:21;;;;;;;13.45;1.80;;;17.20;99.90;;;;;;5079356;28;20526;-88
2022/10/25 13:21:52;;;;;;;6.28;1.45;;;17.10;99.90;;;;;;5074888;28;20104;-87
2022/10/25 13:24:37;;;;;;;13.70;2.53;;;17.00;99.90;;;;;;5080570;28;20082;-87
2022/10/25 13:27:14;;;;;;;4.20;1.38;;;17.20;99.90;;;;;;5055553;28;20024;-88
2022/10/25 13:30:20;;;;;;;27.48;2.42;;;17.20;99.90;;;;;;5061930;28;20514;-88
2022/10/25 13:33:20;;;;;;;5.03;2.13;;;17.10;99.90;;;;;;5061455;28;20396;-87
2022/10/25 13:35:49;;;;;;;9.07;3.30;;;16.90;99.90;;;;;;5062955;28;20020;-87
2022/10/25 13:38:23;;;;;;;9.07;2.40;;;16.70;99.90;;;;;;5070630;28;20029;-88
2022/10/25 13:41:18;;;;;;;13.85;3.78;;;16.60;99.90;;;;;;5084293;28;20082;-89
2022/10/25 13:44:01;;;;;;;10.45;1.90;;;16.70;99.90;;;;;;5057261;28;20447;-88
2022/10/25 13:46:36;;;;;;;14.63;2.75;;;16.70;99.90;;;;;;5079916;28;20104;-88
2022/10/25 13:49:20;;;;;;;7.78;2.08;;;16.70;99.90;;;;;;5065380;28;20038;-89
2022/10/25 13:51:46;;;;;;;9.77;1.60;;;16.50;99.90;;;;;;5063966;28;20052;-88
2022/10/25 13:54:12;;;;;;;4.32;1.20;;;16.50;99.90;;;;;;5079188;28;20095;-89